createdAt,value
2018-12-20T00:01:06.975Z,91.00
2018-12-20T00:03:37.487Z,90.70
2018-12-20T00:06:07.094Z,90.80
2018-12-20T00:08:36.696Z,90.80
2018-12-20T00:11:05.942Z,90.90
2018-12-20T00:13:36.085Z,90.90
2018-12-20T00:16:05.590Z,91.00
2018-12-20T00:18:35.319Z,90.80
2018-12-20T00:21:04.761Z,90.80
2018-12-20T00:23:34.619Z,90.80
2018-12-20T00:26:04.102Z,90.70
2018-12-20T00:28:37.758Z,90.80
2018-12-20T00:31:13.443Z,90.90
2018-12-20T00:33:38.839Z,91.10
2018-12-20T00:36:08.548Z,90.90
2018-12-20T00:38:38.207Z,90.80
2018-12-20T00:41:07.773Z,90.70
2018-12-20T00:43:37.429Z,90.80
2018-12-20T00:46:06.961Z,90.80
2018-12-20T00:48:36.509Z,91.00
2018-12-20T00:51:05.831Z,91.00
2018-12-20T00:53:35.570Z,90.90
2018-12-20T00:56:05.093Z,90.70
2018-12-20T00:58:34.634Z,90.70
2018-12-20T01:01:04.064Z,90.70
2018-12-20T01:03:41.190Z,90.70
2018-12-20T01:06:10.653Z,90.80
2018-12-20T01:08:40.661Z,90.90
2018-12-20T01:11:10.075Z,91.00
2018-12-20T01:13:39.544Z,91.10
2018-12-20T01:16:09.438Z,91.10
2018-12-20T01:18:39.393Z,91.10
2018-12-20T01:21:09.279Z,91.00
2018-12-20T01:23:38.903Z,91.10
2018-12-20T01:26:08.594Z,91.10
2018-12-20T01:28:38.849Z,91.10
2018-12-20T01:31:08.866Z,91.20
2018-12-20T01:33:38.947Z,91.20
2018-12-20T01:36:08.653Z,91.20
2018-12-20T01:38:38.647Z,91.40
2018-12-20T01:41:08.070Z,91.00
2018-12-20T01:43:37.781Z,90.80
2018-12-20T01:46:07.688Z,90.80
2018-12-20T01:48:37.853Z,91.00
2018-12-20T01:51:07.705Z,91.00
2018-12-20T01:53:37.436Z,91.00
2018-12-20T01:56:07.458Z,90.90
2018-12-20T01:58:37.133Z,90.80
2018-12-20T02:01:06.796Z,90.80
2018-12-20T02:03:36.387Z,90.80
2018-12-20T02:06:06.184Z,90.70
2018-12-20T02:08:36.319Z,90.90
2018-12-20T02:11:05.927Z,90.90
2018-12-20T02:13:35.449Z,91.10
2018-12-20T02:16:07.074Z,91.10
2018-12-20T02:18:36.759Z,90.90
2018-12-20T02:21:06.563Z,90.70
2018-12-20T02:23:36.285Z,90.80
2018-12-20T02:26:05.872Z,90.90
2018-12-20T02:28:36.295Z,91.20
2018-12-20T02:31:05.870Z,90.70
2018-12-20T02:33:35.554Z,90.80
2018-12-20T02:36:05.140Z,90.80
2018-12-20T02:38:35.195Z,91.10
2018-12-20T02:41:04.618Z,90.80
2018-12-20T02:43:34.448Z,90.80
2018-12-20T02:46:04.150Z,90.60
2018-12-20T02:48:33.821Z,90.50
2018-12-20T02:51:09.787Z,90.60
2018-12-20T02:53:39.441Z,90.70
2018-12-20T02:56:08.813Z,90.90
2018-12-20T02:58:38.593Z,90.90
2018-12-20T03:01:08.032Z,90.80
2018-12-20T03:03:37.944Z,90.90
2018-12-20T03:06:07.865Z,90.90
2018-12-20T03:08:37.606Z,91.00
2018-12-20T03:11:07.629Z,90.90
2018-12-20T03:13:37.098Z,91.00
2018-12-20T03:16:07.044Z,91.10
2018-12-20T03:18:36.340Z,91.10
2018-12-20T03:21:05.637Z,91.00
2018-12-20T03:23:35.267Z,91.00
2018-12-20T03:26:04.846Z,91.10
2018-12-20T03:28:34.369Z,91.20
2018-12-20T03:31:05.078Z,91.20
2018-12-20T03:33:35.366Z,91.60
2018-12-20T03:36:04.809Z,91.20
2018-12-20T03:38:34.997Z,91.30
2018-12-20T03:41:04.772Z,91.30
2018-12-20T03:43:34.555Z,91.20
2018-12-20T03:46:03.920Z,91.10
2018-12-20T03:48:33.702Z,91.10
2018-12-20T03:51:03.291Z,91.00
2018-12-20T03:53:33.383Z,91.10
2018-12-20T03:56:03.333Z,91.10
2018-12-20T03:58:33.236Z,91.10
2018-12-20T04:01:02.969Z,91.10
2018-12-20T04:03:32.958Z,91.10
2018-12-20T04:06:02.610Z,91.30
2018-12-20T04:08:32.564Z,91.70
2018-12-20T04:11:02.833Z,91.70
2018-12-20T04:13:32.570Z,91.40
2018-12-20T04:16:02.754Z,91.50
2018-12-20T04:18:32.610Z,91.30
2018-12-20T04:21:02.262Z,91.30
2018-12-20T04:23:32.928Z,91.30
2018-12-20T04:26:02.711Z,91.20
2018-12-20T04:28:38.845Z,91.20
2018-12-20T04:31:08.492Z,91.40
2018-12-20T04:33:37.899Z,91.20
2018-12-20T04:36:08.141Z,91.10
2018-12-20T04:38:38.432Z,91.10
2018-12-20T04:41:08.151Z,91.10
2018-12-20T04:43:38.378Z,91.20
2018-12-20T04:46:08.431Z,91.10
2018-12-20T04:48:38.039Z,91.10
2018-12-20T04:51:08.080Z,91.40
2018-12-20T04:53:38.106Z,91.50
2018-12-20T04:56:08.599Z,91.30
2018-12-20T04:58:38.289Z,91.20
2018-12-20T05:01:08.409Z,91.10
2018-12-20T05:03:38.504Z,91.10
2018-12-20T05:06:08.354Z,91.00
2018-12-20T05:08:38.281Z,90.90
2018-12-20T05:11:07.843Z,90.90
2018-12-20T05:13:41.348Z,90.90
2018-12-20T05:16:10.778Z,90.90
2018-12-20T05:18:40.328Z,91.00
2018-12-20T05:21:09.991Z,90.90
2018-12-20T05:23:39.705Z,90.90
2018-12-20T05:26:09.171Z,90.90
2018-12-20T05:28:38.880Z,90.80
2018-12-20T05:31:08.802Z,90.90
2018-12-20T05:33:39.678Z,90.90
2018-12-20T05:36:09.481Z,91.10
2018-12-20T05:38:39.616Z,91.00
2018-12-20T05:41:09.734Z,91.00
2018-12-20T05:43:39.952Z,90.90
2018-12-20T05:46:09.690Z,90.90
2018-12-20T05:48:40.129Z,91.00
2018-12-20T05:51:09.776Z,91.00
2018-12-20T05:53:39.458Z,91.00
2018-12-20T05:56:08.892Z,91.00
2018-12-20T05:58:38.801Z,91.00
2018-12-20T06:01:09.994Z,91.00
2018-12-20T06:03:39.870Z,91.10
2018-12-20T06:06:09.452Z,91.10
2018-12-20T06:08:38.977Z,91.00
2018-12-20T06:11:08.598Z,91.20
2018-12-20T06:13:38.080Z,90.60
2018-12-20T06:16:12.636Z,90.70
2018-12-20T06:18:40.312Z,90.90
2018-12-20T06:21:09.981Z,91.30
2018-12-20T06:23:39.663Z,91.10
2018-12-20T06:26:09.694Z,90.90
2018-12-20T06:28:39.696Z,91.00
2018-12-20T06:31:10.258Z,91.10
2018-12-20T06:33:39.816Z,91.10
2018-12-20T06:36:09.554Z,91.10
2018-12-20T06:38:39.058Z,90.80
2018-12-20T06:41:08.727Z,91.00
2018-12-20T06:43:38.332Z,90.90
2018-12-20T06:46:12.214Z,91.00
2018-12-20T06:48:42.794Z,91.10
2018-12-20T06:51:12.294Z,90.90
2018-12-20T06:53:41.856Z,91.00
2018-12-20T06:56:11.532Z,91.00
2018-12-20T06:58:40.970Z,90.90
2018-12-20T07:01:10.366Z,91.50
2018-12-20T07:03:40.291Z,91.10
2018-12-20T07:06:10.020Z,91.00
2018-12-20T07:08:40.118Z,91.00
2018-12-20T07:11:09.725Z,91.00
2018-12-20T07:13:39.194Z,91.00
2018-12-20T07:16:09.576Z,91.50
2018-12-20T07:18:39.312Z,91.10
2018-12-20T07:21:09.038Z,91.10
2018-12-20T07:23:38.846Z,91.00
2018-12-20T07:26:08.843Z,90.90
2018-12-20T07:28:38.858Z,90.90
2018-12-20T07:31:08.677Z,90.70
2018-12-20T07:33:38.658Z,90.70
2018-12-20T07:36:08.092Z,90.80
2018-12-20T07:38:37.694Z,90.80
2018-12-20T07:41:07.406Z,90.80
2018-12-20T07:43:37.116Z,90.60
2018-12-20T07:46:07.399Z,90.50
2018-12-20T07:48:37.315Z,90.60
2018-12-20T07:51:07.363Z,90.60
2018-12-20T07:53:37.239Z,90.70
2018-12-20T07:56:07.209Z,90.60
2018-12-20T07:58:36.803Z,90.50
2018-12-20T08:01:06.357Z,90.60
2018-12-20T08:03:36.427Z,90.50
2018-12-20T08:06:06.215Z,90.30
2018-12-20T08:08:35.803Z,90.40
2018-12-20T08:11:05.351Z,90.50
2018-12-20T08:13:35.173Z,90.60
2018-12-20T08:16:04.681Z,90.50
2018-12-20T08:18:34.493Z,90.40
2018-12-20T08:21:04.018Z,90.40
2018-12-20T08:23:34.189Z,90.30
2018-12-20T08:26:03.825Z,90.20
2018-12-20T08:28:33.432Z,90.10
2018-12-20T08:31:02.813Z,90.50
2018-12-20T08:33:32.173Z,90.60
2018-12-20T08:36:02.084Z,90.50
2018-12-20T08:38:32.084Z,90.30
2018-12-20T08:41:02.512Z,90.20
2018-12-20T08:43:31.859Z,89.70
2018-12-20T08:46:01.293Z,89.70
2018-12-20T08:48:31.185Z,89.80
2018-12-20T08:51:00.482Z,89.90
2018-12-20T08:53:30.520Z,90.30
2018-12-20T08:55:59.844Z,90.30
2018-12-20T08:58:29.278Z,90.20
2018-12-20T09:00:58.518Z,89.90
2018-12-20T09:03:28.052Z,89.70
2018-12-20T09:05:57.506Z,89.30
2018-12-20T09:08:27.226Z,89.10
2018-12-20T09:10:56.569Z,89.00
2018-12-20T09:13:26.202Z,89.30
2018-12-20T09:15:56.206Z,89.30
2018-12-20T09:18:26.115Z,89.60
2018-12-20T09:20:55.694Z,89.80
2018-12-20T09:23:25.527Z,89.00
2018-12-20T09:25:56.153Z,89.50
2018-12-20T09:28:25.866Z,88.40
2018-12-20T09:30:56.154Z,88.40
2018-12-20T09:33:26.261Z,88.80
2018-12-20T09:35:56.878Z,88.90
2018-12-20T09:38:26.406Z,88.90
2018-12-20T09:40:56.280Z,88.90
2018-12-20T09:43:26.251Z,88.50
2018-12-20T09:45:55.915Z,88.40
2018-12-20T09:48:26.074Z,87.70
2018-12-20T09:50:55.786Z,87.70
2018-12-20T09:53:25.684Z,87.90
2018-12-20T09:55:55.485Z,89.00
2018-12-20T09:58:25.496Z,88.50
2018-12-20T10:00:55.255Z,88.30
2018-12-20T10:03:25.208Z,88.70
2018-12-20T10:05:55.712Z,88.50
2018-12-20T10:08:25.362Z,88.10
2018-12-20T10:10:55.785Z,88.10
2018-12-20T10:13:25.263Z,88.20
2018-12-20T10:15:54.845Z,87.40
2018-12-20T10:18:24.347Z,87.80
2018-12-20T10:20:54.016Z,88.00
2018-12-20T10:23:23.513Z,87.50
2018-12-20T10:25:53.275Z,87.20
2018-12-20T10:28:23.085Z,87.20
2018-12-20T10:30:53.441Z,87.30
2018-12-20T10:33:22.939Z,87.80
2018-12-20T10:35:52.343Z,88.00
2018-12-20T10:38:25.976Z,88.30
2018-12-20T10:40:56.611Z,88.40
2018-12-20T10:43:26.853Z,88.30
2018-12-20T10:45:56.696Z,88.40
2018-12-20T10:48:26.834Z,88.30
2018-12-20T10:50:56.300Z,88.10
2018-12-20T10:53:26.549Z,87.90
2018-12-20T10:55:56.255Z,88.30
2018-12-20T10:58:26.504Z,88.40
2018-12-20T11:02:05.566Z,88.30
2018-12-20T11:04:41.694Z,88.50
2018-12-20T11:08:19.470Z,88.40
2018-12-20T11:10:51.478Z,88.90
2018-12-20T11:13:36.079Z,88.60
2018-12-20T11:16:05.871Z,88.70
2018-12-20T11:18:35.661Z,89.10
2018-12-20T11:21:06.030Z,88.40
2018-12-20T11:23:35.826Z,87.80
2018-12-20T11:26:06.126Z,87.90
2018-12-20T11:28:35.782Z,88.60
2018-12-20T11:31:05.494Z,88.70
2018-12-20T11:33:35.270Z,88.70
2018-12-20T11:36:05.307Z,88.20
2018-12-20T11:38:35.512Z,87.90
2018-12-20T11:41:05.888Z,88.20
2018-12-20T11:43:35.470Z,88.10
2018-12-20T11:46:05.533Z,87.70
2018-12-20T11:52:11.330Z,87.50
2018-12-20T11:54:40.953Z,88.20
2018-12-20T11:57:10.361Z,88.50
2018-12-20T11:59:40.189Z,88.90
2018-12-20T12:02:09.910Z,88.10
2018-12-20T12:04:39.554Z,88.40
2018-12-20T12:07:09.204Z,88.10
2018-12-20T12:09:39.134Z,87.90
2018-12-20T12:12:09.550Z,87.70
2018-12-20T12:14:39.081Z,87.70
2018-12-20T12:17:09.265Z,87.30
2018-12-20T12:19:38.598Z,87.60
2018-12-20T12:22:09.133Z,88.10
2018-12-20T12:24:39.001Z,88.10
2018-12-20T12:27:08.713Z,88.10
2018-12-20T12:29:38.437Z,87.90
2018-12-20T12:32:08.581Z,87.70
2018-12-20T12:34:38.255Z,88.00
2018-12-20T12:37:07.909Z,88.00
2018-12-20T12:39:37.781Z,88.30
2018-12-20T12:42:08.093Z,88.20
2018-12-20T12:44:37.983Z,87.80
2018-12-20T12:47:09.062Z,87.70
2018-12-20T12:49:39.112Z,87.90
2018-12-20T12:52:08.784Z,88.90
2018-12-20T12:54:38.790Z,88.10
2018-12-20T12:57:08.760Z,88.10
2018-12-20T12:59:38.457Z,88.60
2018-12-20T13:02:09.101Z,88.90
2018-12-20T13:04:38.882Z,88.70
2018-12-20T13:07:08.694Z,88.20
2018-12-20T13:09:38.474Z,88.50
2018-12-20T13:12:08.113Z,88.50
2018-12-20T13:14:37.870Z,88.90
2018-12-20T13:17:07.839Z,88.30
2018-12-20T13:19:37.801Z,88.70
2018-12-20T13:22:07.311Z,88.80
2018-12-20T13:24:37.014Z,88.90
2018-12-20T13:27:07.033Z,88.10
2018-12-20T13:29:36.634Z,87.90
2018-12-20T13:32:05.968Z,87.70
2018-12-20T13:34:35.518Z,87.50
2018-12-20T13:37:05.212Z,87.20
2018-12-20T13:39:34.768Z,87.70
2018-12-20T13:42:04.397Z,88.00
2018-12-20T13:44:33.979Z,88.00
2018-12-20T13:47:03.787Z,88.50
2018-12-20T13:49:33.147Z,88.70
2018-12-20T13:52:02.649Z,88.50
2018-12-20T13:54:39.708Z,88.50
2018-12-20T13:57:09.844Z,88.30
2018-12-20T13:59:39.526Z,88.50
2018-12-20T14:02:09.226Z,88.20
2018-12-20T14:04:39.144Z,88.10
2018-12-20T14:07:08.662Z,88.40
2018-12-20T14:09:38.406Z,88.30
2018-12-20T14:12:08.592Z,88.60
2018-12-20T14:14:38.527Z,88.90
2018-12-20T14:17:08.734Z,88.90
2018-12-20T14:19:38.566Z,88.70
2018-12-20T14:22:09.035Z,88.50
2018-12-20T14:24:39.290Z,89.00
2018-12-20T14:27:09.068Z,88.90
2018-12-20T14:29:40.118Z,88.60
2018-12-20T14:32:10.228Z,88.70
2018-12-20T14:34:39.890Z,88.70
2018-12-20T14:37:09.615Z,88.90
2018-12-20T14:39:39.433Z,89.10
2018-12-20T14:42:16.354Z,89.10
2018-12-20T14:44:47.322Z,88.70
2018-12-20T14:47:17.918Z,88.80
2018-12-20T14:49:47.400Z,89.10
2018-12-20T14:52:17.139Z,89.10
2018-12-20T14:54:47.807Z,89.10
2018-12-20T14:58:05.971Z,89.40
2018-12-20T15:00:36.358Z,89.10
2018-12-20T15:03:06.385Z,89.30
2018-12-20T15:05:37.288Z,89.70
2018-12-20T15:08:07.042Z,90.00
2018-12-20T15:10:37.913Z,89.30
2018-12-20T15:13:08.693Z,88.80
2018-12-20T15:15:38.802Z,88.90
2018-12-20T15:18:09.368Z,89.10
2018-12-20T15:20:40.689Z,89.40
2018-12-20T15:23:10.943Z,89.00
2018-12-20T15:25:41.792Z,88.90
2018-12-20T15:28:12.979Z,89.40
2018-12-20T15:30:44.558Z,90.30
2018-12-20T15:33:18.337Z,90.10
2018-12-20T15:35:48.203Z,89.70
2018-12-20T15:38:18.396Z,89.50
2018-12-20T15:40:48.332Z,90.00
2018-12-20T15:43:18.399Z,90.10
2018-12-20T15:45:48.318Z,89.80
2018-12-20T15:48:18.433Z,89.70
2018-12-20T15:50:48.328Z,90.00
2018-12-20T15:53:18.282Z,89.80
2018-12-20T15:55:49.817Z,89.10
2018-12-20T15:58:20.224Z,88.70
2018-12-20T16:00:51.014Z,89.00
2018-12-20T16:03:21.309Z,89.10
2018-12-20T16:05:52.053Z,89.10
2018-12-20T16:08:22.120Z,89.10
2018-12-20T16:10:51.919Z,89.30
2018-12-20T16:13:22.031Z,89.30
2018-12-20T16:15:52.522Z,89.50
2018-12-20T16:18:22.842Z,89.70
2018-12-20T16:20:53.597Z,89.90
2018-12-20T16:23:23.255Z,88.70
2018-12-20T16:25:53.282Z,88.50
2018-12-20T16:28:23.877Z,88.30
2018-12-20T16:30:54.497Z,88.70
2018-12-20T16:33:24.642Z,88.60
2018-12-20T16:35:54.615Z,89.00
2018-12-20T16:38:24.814Z,88.70
2018-12-20T16:40:54.586Z,88.30
2018-12-20T16:43:28.251Z,88.50
2018-12-20T16:46:05.613Z,89.30
2018-12-20T16:48:36.064Z,88.10
2018-12-20T16:51:06.394Z,88.10
2018-12-20T16:53:36.420Z,88.50
2018-12-20T16:56:06.737Z,88.60
2018-12-20T16:58:36.617Z,88.50
2018-12-20T17:01:08.018Z,88.90
2018-12-20T17:04:12.442Z,89.70
2018-12-20T17:06:42.664Z,90.00
2018-12-20T17:09:12.320Z,90.00
2018-12-20T17:11:42.375Z,89.90
2018-12-20T17:14:17.133Z,90.50
2018-12-20T17:16:47.546Z,91.20
2018-12-20T17:19:21.991Z,91.10
2018-12-20T17:21:48.787Z,91.00
2018-12-20T17:24:18.583Z,90.90
2018-12-20T17:26:49.752Z,91.40
2018-12-20T17:29:19.813Z,91.80
2018-12-20T17:31:49.883Z,92.50
2018-12-20T17:34:25.613Z,92.40
2018-12-20T17:36:55.934Z,92.60
2018-12-20T17:39:26.335Z,92.70
2018-12-20T17:41:56.205Z,92.70
2018-12-20T17:44:25.903Z,92.80
2018-12-20T17:46:55.715Z,92.50
2018-12-20T17:49:30.528Z,92.90
2018-12-20T17:51:57.561Z,93.30
2018-12-20T17:54:27.401Z,93.50
2018-12-20T17:56:57.396Z,93.60
2018-12-20T17:59:27.649Z,93.20
2018-12-20T18:01:57.637Z,93.00
2018-12-20T18:04:27.200Z,93.30
2018-12-20T18:06:58.091Z,93.40
2018-12-20T18:09:27.614Z,93.30
2018-12-20T18:11:57.652Z,93.40
2018-12-20T18:14:28.263Z,93.70
2018-12-20T18:16:58.274Z,93.70
2018-12-20T18:19:28.100Z,93.40
2018-12-20T18:22:01.068Z,93.10
2018-12-20T18:28:07.192Z,93.00
2018-12-20T18:30:38.110Z,93.20
2018-12-20T18:33:09.082Z,93.40
2018-12-20T18:35:39.388Z,93.70
2018-12-20T18:38:09.555Z,93.20
2018-12-20T18:40:40.035Z,93.00
2018-12-20T18:43:11.182Z,92.90
2018-12-20T18:45:41.087Z,92.90
2018-12-20T18:48:10.646Z,93.10
2018-12-20T18:50:41.960Z,93.20
2018-12-20T18:53:11.987Z,93.00
2018-12-20T18:55:42.300Z,92.60
2018-12-20T18:58:11.959Z,92.90
2018-12-20T19:00:42.000Z,93.20
2018-12-20T19:03:12.647Z,93.00
2018-12-20T19:05:42.419Z,93.30
2018-12-20T19:08:12.131Z,93.20
2018-12-20T19:10:42.633Z,93.00
2018-12-20T19:13:12.720Z,93.50
2018-12-20T19:15:42.417Z,93.10
2018-12-20T19:18:12.911Z,93.70
2018-12-20T19:20:46.651Z,93.80
2018-12-20T19:23:16.982Z,93.70
2018-12-20T19:25:46.855Z,93.70
2018-12-20T19:28:17.123Z,93.80
2018-12-20T19:30:46.906Z,93.70
2018-12-20T19:33:17.269Z,93.60
2018-12-20T19:35:47.232Z,93.80
2018-12-20T19:38:21.184Z,94.00
2018-12-20T19:40:51.729Z,94.10
2018-12-20T19:43:21.960Z,94.00
2018-12-20T19:45:51.961Z,93.90
2018-12-20T19:48:21.954Z,93.70
2018-12-20T19:50:52.487Z,93.80
2018-12-20T19:53:22.187Z,93.70
2018-12-20T19:55:51.895Z,93.80
2018-12-20T19:58:23.228Z,93.60
2018-12-20T20:00:53.302Z,93.70
2018-12-20T20:03:23.550Z,94.30
2018-12-20T20:05:53.845Z,93.80
2018-12-20T20:08:23.925Z,93.10
2018-12-20T20:10:53.972Z,93.10
2018-12-20T20:13:30.654Z,93.60
2018-12-20T20:15:56.090Z,93.90
2018-12-20T20:18:26.411Z,93.80
2018-12-20T20:20:56.485Z,93.60
2018-12-20T20:23:26.264Z,93.60
2018-12-20T20:25:56.592Z,93.60
2018-12-20T20:28:27.713Z,93.60
2018-12-20T20:30:57.510Z,94.00
2018-12-20T20:33:27.746Z,94.00
2018-12-20T20:36:02.737Z,94.50
2018-12-20T20:38:32.732Z,94.30
2018-12-20T20:41:02.912Z,94.50
2018-12-20T20:43:33.136Z,94.50
2018-12-20T20:46:03.346Z,94.30
2018-12-20T20:48:33.363Z,94.30
2018-12-20T20:51:03.024Z,94.30
2018-12-20T20:53:34.565Z,94.30
2018-12-20T20:56:05.192Z,94.50
2018-12-20T20:58:36.069Z,94.30
2018-12-20T21:01:05.584Z,94.10
2018-12-20T21:03:35.701Z,94.30
2018-12-20T21:06:05.960Z,94.20
2018-12-20T21:08:40.935Z,94.00
2018-12-20T21:11:10.802Z,93.90
2018-12-20T21:13:40.751Z,94.20
2018-12-20T21:16:10.732Z,94.40
2018-12-20T21:18:40.870Z,94.30
2018-12-20T21:21:10.695Z,94.20
2018-12-20T21:23:41.816Z,94.30
2018-12-20T21:26:11.571Z,94.10
2018-12-20T21:28:41.846Z,94.10
2018-12-20T21:31:11.655Z,94.20
2018-12-20T21:33:41.305Z,94.30
2018-12-20T21:36:10.743Z,94.50
2018-12-20T21:38:40.308Z,94.70
2018-12-20T21:41:10.573Z,94.90
2018-12-20T21:43:40.645Z,94.90
2018-12-20T21:46:11.368Z,94.70
2018-12-20T21:48:41.509Z,94.90
2018-12-20T21:51:11.394Z,94.80
2018-12-20T21:53:41.266Z,94.60
2018-12-20T21:56:11.044Z,94.30
2018-12-20T21:58:40.885Z,94.20
2018-12-20T22:01:11.283Z,94.30
2018-12-20T22:03:41.328Z,94.40
2018-12-20T22:06:11.187Z,94.40
2018-12-20T22:08:41.007Z,94.40
2018-12-20T22:11:10.563Z,94.40
2018-12-20T22:13:40.578Z,94.40
2018-12-20T22:16:10.509Z,94.50
2018-12-20T22:18:41.291Z,94.30
2018-12-20T22:21:11.022Z,94.10
2018-12-20T22:23:40.624Z,94.00
2018-12-20T22:26:11.556Z,94.20
2018-12-20T22:28:41.632Z,94.20
2018-12-20T22:31:12.500Z,94.40
2018-12-20T22:33:42.776Z,94.40
2018-12-20T22:36:17.026Z,94.60
2018-12-20T22:38:47.019Z,94.70
2018-12-20T22:41:17.191Z,94.80
2018-12-20T22:43:47.087Z,94.70
2018-12-20T22:46:16.777Z,94.80
2018-12-20T22:48:47.148Z,94.70
2018-12-20T22:51:17.117Z,94.70
2018-12-20T22:53:47.212Z,94.60
2018-12-20T22:56:17.242Z,94.50
2018-12-20T22:58:47.044Z,94.50
2018-12-20T23:01:17.685Z,94.60
2018-12-20T23:03:47.334Z,94.60
2018-12-20T23:06:17.341Z,94.40
2018-12-20T23:08:47.381Z,94.60
2018-12-20T23:11:17.797Z,94.70
2018-12-20T23:13:47.812Z,94.70
2018-12-20T23:16:18.635Z,94.80
2018-12-20T23:18:48.415Z,94.80
2018-12-20T23:21:18.422Z,94.80
2018-12-20T23:23:49.136Z,94.70
2018-12-20T23:26:18.841Z,94.50
2018-12-20T23:28:48.895Z,94.60
2018-12-20T23:31:18.699Z,94.70
2018-12-20T23:33:48.341Z,94.50
2018-12-20T23:36:17.812Z,94.50
2018-12-20T23:38:47.254Z,94.20
2018-12-20T23:41:17.732Z,94.10
2018-12-20T23:43:47.471Z,94.00
2018-12-20T23:46:18.179Z,94.20
2018-12-20T23:48:48.603Z,94.20
2018-12-20T23:51:18.512Z,94.50
2018-12-20T23:53:48.555Z,94.30
2018-12-20T23:56:18.294Z,94.40
2018-12-20T23:58:48.967Z,94.40
